Terminal Aerodrome Forecast
Issued by NWS Tampa Bay Area, FL

Home | Current Version | Previous Version | Text Only | Print | Product List | Glossary On
Versions: 1 2 3 4 5 6 7 8 9 10 11 12 13 14 15 16 17 18 19 20 21 22 23
000
FTUS42 KTBW 261300 AAA
TAFFMY
TAF AMD
KFMY 261303Z 2613/2712 36010KT P6SM -RA FEW015 BKN035 OVC050
      TEMPO 2613/2615 SCT008 BKN015
     FM261500 35013G22KT P6SM VCSH SCT015 OVC035
     FM261900 35012G20KT P6SM FEW040 SCT250
     FM262300 36008KT P6SM FEW250
     FM270500 01005KT P6SM FEW250=

USA.gov is the U.S. government's official web portal to all federal, state and local government web resources and services.